sensor_id;sensor_type;location;lat;lon;timestamp;pressure;altitude;pressure_sealevel;temperature;humidity
56821;BME280;42702;50.178;20.992;2022-12-05T00:01:48;99967.00;;;1.22;82.20
56821;BME280;42702;50.178;20.992;2022-12-05T00:04:16;99967.85;;;1.22;82.15
56821;BME280;42702;50.178;20.992;2022-12-05T00:06:45;99965.08;;;1.22;82.18
56821;BME280;42702;50.178;20.992;2022-12-05T00:09:13;99964.80;;;1.23;82.38
56821;BME280;42702;50.178;20.992;2022-12-05T00:11:43;99961.10;;;1.29;81.96
56821;BME280;42702;50.178;20.992;2022-12-05T00:14:12;99966.13;;;1.30;82.12
56821;BME280;42702;50.178;20.992;2022-12-05T00:16:42;99958.98;;;1.27;82.12
56821;BME280;42702;50.178;20.992;2022-12-05T00:19:13;99964.36;;;1.29;82.58
56821;BME280;42702;50.178;20.992;2022-12-05T00:21:44;99953.67;;;1.31;82.59
56821;BME280;42702;50.178;20.992;2022-12-05T00:24:16;99950.39;;;1.36;82.25
56821;BME280;42702;50.178;20.992;2022-12-05T00:26:49;99947.73;;;1.38;81.98
56821;BME280;42702;50.178;20.992;2022-12-05T00:29:17;99951.23;;;1.44;82.18
56821;BME280;42702;50.178;20.992;2022-12-05T00:31:45;99951.63;;;1.45;82.21
56821;BME280;42702;50.178;20.992;2022-12-05T00:34:13;99959.66;;;1.44;82.20
56821;BME280;42702;50.178;20.992;2022-12-05T00:36:41;99954.39;;;1.41;82.07
56821;BME280;42702;50.178;20.992;2022-12-05T00:39:11;99952.95;;;1.40;82.23
56821;BME280;42702;50.178;20.992;2022-12-05T00:41:44;99951.64;;;1.45;82.29
56821;BME280;42702;50.178;20.992;2022-12-05T00:44:12;99956.64;;;1.54;81.95
56821;BME280;42702;50.178;20.992;2022-12-05T00:46:40;99952.99;;;1.53;81.70
56821;BME280;42702;50.178;20.992;2022-12-05T00:49:10;99954.71;;;1.49;82.00
56821;BME280;42702;50.178;20.992;2022-12-05T00:51:41;99952.79;;;1.48;82.11
56821;BME280;42702;50.178;20.992;2022-12-05T00:54:12;99949.17;;;1.48;82.11
56821;BME280;42702;50.178;20.992;2022-12-05T00:56:41;99947.48;;;1.48;82.15
56821;BME280;42702;50.178;20.992;2022-12-05T00:59:14;99943.46;;;1.47;82.09
56821;BME280;42702;50.178;20.992;2022-12-05T01:01:45;99936.45;;;1.51;81.73
56821;BME280;42702;50.178;20.992;2022-12-05T01:04:19;99937.80;;;1.51;82.01
56821;BME280;42702;50.178;20.992;2022-12-05T01:06:48;99935.05;;;1.51;82.26
56821;BME280;42702;50.178;20.992;2022-12-05T01:09:18;99929.30;;;1.53;82.28
56821;BME280;42702;50.178;20.992;2022-12-05T01:11:48;99926.80;;;1.55;82.12
56821;BME280;42702;50.178;20.992;2022-12-05T01:14:18;99927.56;;;1.57;82.18
56821;BME280;42702;50.178;20.992;2022-12-05T01:16:50;99927.92;;;1.58;82.03
56821;BME280;42702;50.178;20.992;2022-12-05T01:19:28;99926.94;;;1.63;81.73
56821;BME280;42702;50.178;20.992;2022-12-05T01:21:58;99927.32;;;1.63;81.89
56821;BME280;42702;50.178;20.992;2022-12-05T01:24:27;99926.50;;;1.60;81.99
56821;BME280;42702;50.178;20.992;2022-12-05T01:26:56;99924.71;;;1.59;81.97
56821;BME280;42702;50.178;20.992;2022-12-05T01:29:27;99920.95;;;1.59;82.01
56821;BME280;42702;50.178;20.992;2022-12-05T01:31:55;99917.69;;;1.59;82.01
56821;BME280;42702;50.178;20.992;2022-12-05T01:34:24;99914.03;;;1.62;82.03
56821;BME280;42702;50.178;20.992;2022-12-05T01:36:52;99914.78;;;1.68;81.65
56821;BME280;42702;50.178;20.992;2022-12-05T01:39:20;99906.41;;;1.69;81.94
56821;BME280;42702;50.178;20.992;2022-12-05T01:41:49;99907.62;;;1.69;81.93
56821;BME280;42702;50.178;20.992;2022-12-05T01:46:48;99906.89;;;1.64;81.85
56821;BME280;42702;50.178;20.992;2022-12-05T01:49:24;99908.44;;;1.64;81.84
56821;BME280;42702;50.178;20.992;2022-12-05T01:51:59;99909.91;;;1.66;81.82
56821;BME280;42702;50.178;20.992;2022-12-05T01:54:29;99908.48;;;1.74;81.74
56821;BME280;42702;50.178;20.992;2022-12-05T01:57:01;99908.65;;;1.74;81.93
56821;BME280;42702;50.178;20.992;2022-12-05T01:59:34;99901.91;;;1.73;81.73
56821;BME280;42702;50.178;20.992;2022-12-05T02:02:04;99898.73;;;1.71;81.76
56821;BME280;42702;50.178;20.992;2022-12-05T02:04:37;99897.77;;;1.68;81.80
56821;BME280;42702;50.178;20.992;2022-12-05T02:07:08;99900.38;;;1.69;81.83
56821;BME280;42702;50.178;20.992;2022-12-05T02:09:37;99898.80;;;1.68;81.68
56821;BME280;42702;50.178;20.992;2022-12-05T02:12:05;99894.95;;;1.75;81.63
56821;BME280;42702;50.178;20.992;2022-12-05T02:17:47;99889.11;;;1.70;81.99
56821;BME280;42702;50.178;20.992;2022-12-05T02:28:42;99876.21;;;1.75;81.59
56821;BME280;42702;50.178;20.992;2022-12-05T02:31:32;99879.95;;;1.74;81.73
56821;BME280;42702;50.178;20.992;2022-12-05T02:36:46;99877.49;;;1.73;81.73
56821;BME280;42702;50.178;20.992;2022-12-05T02:39:36;99877.67;;;1.68;81.71
56821;BME280;42702;50.178;20.992;2022-12-05T02:42:12;99876.66;;;1.64;81.60
56821;BME280;42702;50.178;20.992;2022-12-05T02:45:03;99875.95;;;1.68;81.77
56821;BME280;42702;50.178;20.992;2022-12-05T02:47:39;99878.46;;;1.66;81.74
56821;BME280;42702;50.178;20.992;2022-12-05T02:50:10;99877.95;;;1.62;81.80
56821;BME280;42702;50.178;20.992;2022-12-05T02:52:41;99873.77;;;1.60;82.03
56821;BME280;42702;50.178;20.992;2022-12-05T02:55:13;99873.44;;;1.61;82.11
56821;BME280;42702;50.178;20.992;2022-12-05T02:57:45;99873.16;;;1.63;81.97
56821;BME280;42702;50.178;20.992;2022-12-05T03:00:17;99875.00;;;1.70;81.87
56821;BME280;42702;50.178;20.992;2022-12-05T03:02:47;99876.20;;;1.70;81.70
56821;BME280;42702;50.178;20.992;2022-12-05T03:07:54;99875.40;;;1.67;81.98
56821;BME280;42702;50.178;20.992;2022-12-05T03:10:26;99874.05;;;1.67;81.95
56821;BME280;42702;50.178;20.992;2022-12-05T03:13:01;99880.57;;;1.67;82.08
56821;BME280;42702;50.178;20.992;2022-12-05T03:15:37;99878.86;;;1.68;81.67
56821;BME280;42702;50.178;20.992;2022-12-05T03:18:12;99880.61;;;1.68;81.55
56821;BME280;42702;50.178;20.992;2022-12-05T03:20:49;99881.92;;;1.63;81.72
56821;BME280;42702;50.178;20.992;2022-12-05T03:23:26;99880.77;;;1.59;81.93
56821;BME280;42702;50.178;20.992;2022-12-05T03:25:59;99882.59;;;1.58;82.01
56821;BME280;42702;50.178;20.992;2022-12-05T03:28:35;99881.45;;;1.55;81.93
56821;BME280;42702;50.178;20.992;2022-12-05T03:31:11;99877.63;;;1.58;82.15
56821;BME280;42702;50.178;20.992;2022-12-05T03:33:44;99872.27;;;1.66;81.81
56821;BME280;42702;50.178;20.992;2022-12-05T03:36:18;99866.39;;;1.65;81.92
56821;BME280;42702;50.178;20.992;2022-12-05T03:41:39;99866.30;;;1.63;82.01
56821;BME280;42702;50.178;20.992;2022-12-05T03:44:13;99864.67;;;1.61;81.84
56821;BME280;42702;50.178;20.992;2022-12-05T03:46:52;99862.42;;;1.56;81.88
56821;BME280;42702;50.178;20.992;2022-12-05T03:49:31;99863.34;;;1.62;81.80
56821;BME280;42702;50.178;20.992;2022-12-05T03:52:08;99863.58;;;1.64;81.81
56821;BME280;42702;50.178;20.992;2022-12-05T03:54:44;99862.73;;;1.60;81.79
56821;BME280;42702;50.178;20.992;2022-12-05T03:57:21;99857.94;;;1.56;82.04
56821;BME280;42702;50.178;20.992;2022-12-05T04:00:05;99853.20;;;1.53;81.98
56821;BME280;42702;50.178;20.992;2022-12-05T04:02:41;99850.31;;;1.50;82.27
56821;BME280;42702;50.178;20.992;2022-12-05T04:07:53;99848.59;;;1.58;81.95
56821;BME280;42702;50.178;20.992;2022-12-05T04:10:28;99849.30;;;1.59;82.16
56821;BME280;42702;50.178;20.992;2022-12-05T04:13:00;99847.05;;;1.58;82.05
56821;BME280;42702;50.178;20.992;2022-12-05T04:15:49;99848.63;;;1.55;82.07
56821;BME280;42702;50.178;20.992;2022-12-05T04:18:37;99848.79;;;1.55;82.13
56821;BME280;42702;50.178;20.992;2022-12-05T04:21:07;99848.98;;;1.55;82.07
56821;BME280;42702;50.178;20.992;2022-12-05T04:23:54;99851.95;;;1.61;81.86
56821;BME280;42702;50.178;20.992;2022-12-05T04:26:45;99851.58;;;1.60;81.87
56821;BME280;42702;50.178;20.992;2022-12-05T04:29:26;99856.01;;;1.59;82.02
56821;BME280;42702;50.178;20.992;2022-12-05T04:31:59;99850.52;;;1.59;82.14
56821;BME280;42702;50.178;20.992;2022-12-05T04:34:31;99849.80;;;1.63;82.23
56821;BME280;42702;50.178;20.992;2022-12-05T04:37:09;99852.99;;;1.65;82.11
56821;BME280;42702;50.178;20.992;2022-12-05T04:39:51;99856.35;;;1.68;81.91
56821;BME280;42702;50.178;20.992;2022-12-05T04:42:25;99853.46;;;1.73;81.75
56821;BME280;42702;50.178;20.992;2022-12-05T04:45:01;99854.45;;;1.72;81.75
56821;BME280;42702;50.178;20.992;2022-12-05T04:47:36;99855.23;;;1.69;81.68
56821;BME280;42702;50.178;20.992;2022-12-05T04:50:09;99857.98;;;1.70;81.87
56821;BME280;42702;50.178;20.992;2022-12-05T04:52:39;99853.50;;;1.69;81.87
56821;BME280;42702;50.178;20.992;2022-12-05T04:55:17;99851.77;;;1.69;81.89
56821;BME280;42702;50.178;20.992;2022-12-05T04:57:54;99848.96;;;1.72;81.57
56821;BME280;42702;50.178;20.992;2022-12-05T05:00:23;99851.77;;;1.79;81.44
56821;BME280;42702;50.178;20.992;2022-12-05T05:03:09;99851.75;;;1.78;81.57
56821;BME280;42702;50.178;20.992;2022-12-05T05:05:40;99846.83;;;1.75;81.53
56821;BME280;42702;50.178;20.992;2022-12-05T05:08:22;99843.57;;;1.70;81.50
56821;BME280;42702;50.178;20.992;2022-12-05T05:11:19;99841.80;;;1.69;81.62
56821;BME280;42702;50.178;20.992;2022-12-05T05:13:49;99845.54;;;1.68;81.58
56821;BME280;42702;50.178;20.992;2022-12-05T05:16:30;99848.15;;;1.69;81.38
56821;BME280;42702;50.178;20.992;2022-12-05T05:18:58;99846.42;;;1.69;81.14
56821;BME280;42702;50.178;20.992;2022-12-05T05:21:32;99846.90;;;1.63;81.23
56821;BME280;42702;50.178;20.992;2022-12-05T05:24:01;99848.34;;;1.60;81.51
56821;BME280;42702;50.178;20.992;2022-12-05T05:26:33;99849.27;;;1.58;81.44
56821;BME280;42702;50.178;20.992;2022-12-05T05:29:02;99853.00;;;1.57;81.77
56821;BME280;42702;50.178;20.992;2022-12-05T05:31:31;99856.35;;;1.59;81.67
56821;BME280;42702;50.178;20.992;2022-12-05T05:33:59;99856.83;;;1.62;81.58
56821;BME280;42702;50.178;20.992;2022-12-05T05:36:37;99858.54;;;1.67;81.31
56821;BME280;42702;50.178;20.992;2022-12-05T05:39:05;99862.45;;;1.66;81.39
56821;BME280;42702;50.178;20.992;2022-12-05T05:41:35;99863.29;;;1.65;81.40
56821;BME280;42702;50.178;20.992;2022-12-05T05:44:04;99863.92;;;1.64;81.52
56821;BME280;42702;50.178;20.992;2022-12-05T05:46:35;99862.51;;;1.63;81.48
56821;BME280;42702;50.178;20.992;2022-12-05T05:49:04;99862.91;;;1.60;81.31
56821;BME280;42702;50.178;20.992;2022-12-05T05:51:32;99863.52;;;1.58;81.13
56821;BME280;42702;50.178;20.992;2022-12-05T05:54:00;99858.18;;;1.58;81.13
56821;BME280;42702;50.178;20.992;2022-12-05T05:56:29;99859.10;;;1.55;81.21
56821;BME280;42702;50.178;20.992;2022-12-05T05:58:59;99858.84;;;1.52;81.49
56821;BME280;42702;50.178;20.992;2022-12-05T06:01:28;99860.11;;;1.50;81.30
56821;BME280;42702;50.178;20.992;2022-12-05T06:03:57;99864.30;;;1.47;81.41
56821;BME280;42702;50.178;20.992;2022-12-05T06:06:26;99868.58;;;1.43;81.54
56821;BME280;42702;50.178;20.992;2022-12-05T06:08:54;99865.47;;;1.42;81.46
56821;BME280;42702;50.178;20.992;2022-12-05T06:11:24;99867.73;;;1.47;81.24
56821;BME280;42702;50.178;20.992;2022-12-05T06:13:55;99865.75;;;1.45;81.34
56821;BME280;42702;50.178;20.992;2022-12-05T06:16:24;99867.89;;;1.42;81.51
56821;BME280;42702;50.178;20.992;2022-12-05T06:18:52;99867.10;;;1.44;81.57
56821;BME280;42702;50.178;20.992;2022-12-05T06:21:21;99871.48;;;1.46;81.57
56821;BME280;42702;50.178;20.992;2022-12-05T06:23:50;99871.70;;;1.47;81.61
56821;BME280;42702;50.178;20.992;2022-12-05T06:26:20;99870.90;;;1.49;81.57
56821;BME280;42702;50.178;20.992;2022-12-05T06:28:48;99876.70;;;1.57;81.03
56821;BME280;42702;50.178;20.992;2022-12-05T06:31:19;99878.16;;;1.59;81.48
56821;BME280;42702;50.178;20.992;2022-12-05T06:33:48;99883.60;;;1.62;81.46
56821;BME280;42702;50.178;20.992;2022-12-05T06:36:19;99880.73;;;1.63;81.39
56821;BME280;42702;50.178;20.992;2022-12-05T06:38:48;99886.24;;;1.63;81.42
56821;BME280;42702;50.178;20.992;2022-12-05T06:41:18;99884.35;;;1.63;81.40
56821;BME280;42702;50.178;20.992;2022-12-05T06:43:46;99883.13;;;1.63;81.17
56821;BME280;42702;50.178;20.992;2022-12-05T06:46:15;99881.13;;;1.64;81.43
56821;BME280;42702;50.178;20.992;2022-12-05T06:48:43;99875.68;;;1.70;81.12
56821;BME280;42702;50.178;20.992;2022-12-05T06:51:15;99877.31;;;1.67;81.29
56821;BME280;42702;50.178;20.992;2022-12-05T06:53:44;99871.68;;;1.68;81.51
56821;BME280;42702;50.178;20.992;2022-12-05T06:56:18;99876.23;;;1.71;81.55
56821;BME280;42702;50.178;20.992;2022-12-05T06:58:49;99869.88;;;1.76;81.55
56821;BME280;42702;50.178;20.992;2022-12-05T07:01:21;99866.39;;;1.78;81.49
56821;BME280;42702;50.178;20.992;2022-12-05T07:04:13;99865.88;;;1.79;81.26
56821;BME280;42702;50.178;20.992;2022-12-05T07:06:43;99867.89;;;1.86;81.35
56821;BME280;42702;50.178;20.992;2022-12-05T07:09:19;99871.23;;;1.88;81.26
56821;BME280;42702;50.178;20.992;2022-12-05T07:11:48;99869.70;;;1.89;81.23
56821;BME280;42702;50.178;20.992;2022-12-05T07:14:17;99862.55;;;1.90;81.34
56821;BME280;42702;50.178;20.992;2022-12-05T07:17:05;99871.70;;;1.91;81.40
56821;BME280;42702;50.178;20.992;2022-12-05T07:19:34;99874.33;;;1.93;81.38
56821;BME280;42702;50.178;20.992;2022-12-05T07:22:02;99874.49;;;1.97;81.24
56821;BME280;42702;50.178;20.992;2022-12-05T07:24:31;99874.66;;;2.06;81.03
56821;BME280;42702;50.178;20.992;2022-12-05T07:26:59;99877.87;;;2.09;81.27
56821;BME280;42702;50.178;20.992;2022-12-05T07:29:27;99874.71;;;2.12;81.36
56821;BME280;42702;50.178;20.992;2022-12-05T07:31:55;99873.20;;;2.17;81.59
56821;BME280;42702;50.178;20.992;2022-12-05T07:34:23;99874.56;;;2.22;81.40
56821;BME280;42702;50.178;20.992;2022-12-05T07:36:51;99874.31;;;2.24;81.30
56821;BME280;42702;50.178;20.992;2022-12-05T07:39:19;99880.25;;;2.27;81.46
56821;BME280;42702;50.178;20.992;2022-12-05T07:41:47;99875.46;;;2.37;81.13
56821;BME280;42702;50.178;20.992;2022-12-05T07:44:16;99871.55;;;2.42;81.23
56821;BME280;42702;50.178;20.992;2022-12-05T07:46:44;99876.87;;;2.47;81.41
56821;BME280;42702;50.178;20.992;2022-12-05T07:49:12;99876.46;;;2.50;81.19
56821;BME280;42702;50.178;20.992;2022-12-05T07:51:42;99877.02;;;2.56;81.33
56821;BME280;42702;50.178;20.992;2022-12-05T07:54:10;99876.66;;;2.60;81.28
56821;BME280;42702;50.178;20.992;2022-12-05T07:56:38;99878.62;;;2.62;81.16
56821;BME280;42702;50.178;20.992;2022-12-05T07:59:14;99879.92;;;2.65;81.12
56821;BME280;42702;50.178;20.992;2022-12-05T08:01:42;99882.63;;;2.74;80.85
56821;BME280;42702;50.178;20.992;2022-12-05T08:04:10;99882.64;;;2.79;81.07
56821;BME280;42702;50.178;20.992;2022-12-05T08:06:42;99880.03;;;2.83;81.33
56821;BME280;42702;50.178;20.992;2022-12-05T08:09:10;99882.00;;;2.90;81.26
56821;BME280;42702;50.178;20.992;2022-12-05T08:11:38;99878.19;;;2.95;81.23
56821;BME280;42702;50.178;20.992;2022-12-05T08:14:06;99874.55;;;2.99;81.14
56821;BME280;42702;50.178;20.992;2022-12-05T08:16:35;99876.46;;;2.99;81.13
56821;BME280;42702;50.178;20.992;2022-12-05T08:19:06;99873.49;;;3.03;81.00
56821;BME280;42702;50.178;20.992;2022-12-05T08:21:35;99867.91;;;3.11;80.75
56821;BME280;42702;50.178;20.992;2022-12-05T08:24:06;99872.22;;;3.16;80.82
56821;BME280;42702;50.178;20.992;2022-12-05T08:26:35;99868.04;;;3.20;81.23
56821;BME280;42702;50.178;20.992;2022-12-05T08:29:11;99871.65;;;3.25;81.26
56821;BME280;42702;50.178;20.992;2022-12-05T08:31:50;99868.63;;;3.28;80.98
56821;BME280;42702;50.178;20.992;2022-12-05T08:34:19;99866.77;;;3.29;81.00
56821;BME280;42702;50.178;20.992;2022-12-05T08:36:47;99868.92;;;3.31;80.93
56821;BME280;42702;50.178;20.992;2022-12-05T08:39:17;99869.72;;;3.40;80.82
56821;BME280;42702;50.178;20.992;2022-12-05T08:41:47;99868.45;;;3.43;80.86
56821;BME280;42702;50.178;20.992;2022-12-05T08:44:16;99864.02;;;3.45;80.91
56821;BME280;42702;50.178;20.992;2022-12-05T08:46:47;99858.61;;;3.48;80.98
56821;BME280;42702;50.178;20.992;2022-12-05T08:49:16;99862.98;;;3.50;80.94
56821;BME280;42702;50.178;20.992;2022-12-05T08:51:45;99852.23;;;3.53;81.21
56821;BME280;42702;50.178;20.992;2022-12-05T08:54:13;99853.86;;;3.56;81.04
56821;BME280;42702;50.178;20.992;2022-12-05T08:56:41;99848.48;;;3.61;81.25
56821;BME280;42702;50.178;20.992;2022-12-05T08:59:10;99839.46;;;3.70;81.04
56821;BME280;42702;50.178;20.992;2022-12-05T09:01:38;99835.81;;;3.74;81.13
56821;BME280;42702;50.178;20.992;2022-12-05T09:04:08;99831.42;;;3.78;81.25
56821;BME280;42702;50.178;20.992;2022-12-05T09:06:36;99835.09;;;3.79;81.14
56821;BME280;42702;50.178;20.992;2022-12-05T09:09:08;99837.23;;;3.81;81.09
56821;BME280;42702;50.178;20.992;2022-12-05T09:11:43;99833.65;;;3.83;81.21
56821;BME280;42702;50.178;20.992;2022-12-05T09:14:18;99830.81;;;3.86;81.03
56821;BME280;42702;50.178;20.992;2022-12-05T09:16:46;99819.19;;;3.89;81.29
56821;BME280;42702;50.178;20.992;2022-12-05T09:19:17;99815.14;;;3.98;80.86
56821;BME280;42702;50.178;20.992;2022-12-05T09:21:47;99813.37;;;4.03;81.14
56821;BME280;42702;50.178;20.992;2022-12-05T09:24:16;99809.27;;;4.04;81.44
56821;BME280;42702;50.178;20.992;2022-12-05T09:26:44;99813.08;;;4.10;81.34
56821;BME280;42702;50.178;20.992;2022-12-05T09:29:13;99816.13;;;4.15;81.38
56821;BME280;42702;50.178;20.992;2022-12-05T09:31:46;99811.77;;;4.19;81.34
56821;BME280;42702;50.178;20.992;2022-12-05T09:34:16;99810.52;;;4.23;81.15
56821;BME280;42702;50.178;20.992;2022-12-05T09:36:46;99804.30;;;4.29;81.48
56821;BME280;42702;50.178;20.992;2022-12-05T09:39:28;99797.60;;;4.43;81.26
56821;BME280;42702;50.178;20.992;2022-12-05T09:42:08;99798.84;;;4.51;81.22
56821;BME280;42702;50.178;20.992;2022-12-05T09:44:48;99801.59;;;4.57;81.06
56821;BME280;42702;50.178;20.992;2022-12-05T09:47:31;99804.23;;;4.64;81.45
56821;BME280;42702;50.178;20.992;2022-12-05T10:04:28;99774.98;;;5.10;81.11
56821;BME280;42702;50.178;20.992;2022-12-05T10:15:43;99770.70;;;5.34;80.90
56821;BME280;42702;50.178;20.992;2022-12-05T10:21:36;99761.48;;;5.54;80.91
56821;BME280;42702;50.178;20.992;2022-12-05T10:24:14;99759.18;;;5.60;80.68
56821;BME280;42702;50.178;20.992;2022-12-05T10:26:47;99759.31;;;5.66;80.83
56821;BME280;42702;50.178;20.992;2022-12-05T10:31:46;99754.03;;;5.78;80.95
56821;BME280;42702;50.178;20.992;2022-12-05T10:34:29;99753.29;;;5.83;80.92
56821;BME280;42702;50.178;20.992;2022-12-05T10:37:08;99755.20;;;5.92;80.82
56821;BME280;42702;50.178;20.992;2022-12-05T10:39:38;99752.70;;;6.04;80.56
56821;BME280;42702;50.178;20.992;2022-12-05T10:42:11;99747.46;;;6.10;80.86
56821;BME280;42702;50.178;20.992;2022-12-05T10:44:41;99747.39;;;6.15;80.81
56821;BME280;42702;50.178;20.992;2022-12-05T10:47:09;99743.71;;;6.22;80.73
56821;BME280;42702;50.178;20.992;2022-12-05T10:49:38;99734.23;;;6.24;80.83
56821;BME280;42702;50.178;20.992;2022-12-05T10:52:07;99730.11;;;6.25;80.66
56821;BME280;42702;50.178;20.992;2022-12-05T10:54:43;99730.13;;;6.27;80.42
56821;BME280;42702;50.178;20.992;2022-12-05T10:57:25;99731.48;;;6.35;80.57
56821;BME280;42702;50.178;20.992;2022-12-05T10:59:54;99732.77;;;6.48;80.42
56821;BME280;42702;50.178;20.992;2022-12-05T11:02:29;99730.48;;;6.55;80.52
56821;BME280;42702;50.178;20.992;2022-12-05T11:05:02;99731.29;;;6.62;80.74
56821;BME280;42702;50.178;20.992;2022-12-05T11:07:37;99730.60;;;6.74;80.79
56821;BME280;42702;50.178;20.992;2022-12-05T11:10:24;99727.16;;;6.84;80.63
56821;BME280;42702;50.178;20.992;2022-12-05T11:12:57;99727.50;;;6.94;80.63
56821;BME280;42702;50.178;20.992;2022-12-05T11:15:30;99728.70;;;7.05;80.30
56821;BME280;42702;50.178;20.992;2022-12-05T11:18:16;99723.89;;;7.19;80.10
56821;BME280;42702;50.178;20.992;2022-12-05T11:20:45;99726.43;;;7.26;80.03
56821;BME280;42702;50.178;20.992;2022-12-05T11:23:31;99728.43;;;7.33;79.90
56821;BME280;42702;50.178;20.992;2022-12-05T11:25:59;99724.55;;;7.40;79.91
56821;BME280;42702;50.178;20.992;2022-12-05T11:28:32;99717.52;;;7.46;79.59
56821;BME280;42702;50.178;20.992;2022-12-05T11:33:41;99718.66;;;7.53;78.98
56821;BME280;42702;50.178;20.992;2022-12-05T11:36:21;99711.92;;;7.56;79.18
56821;BME280;42702;50.178;20.992;2022-12-05T11:38:50;99712.33;;;7.60;79.10
56821;BME280;42702;50.178;20.992;2022-12-05T11:57:33;99687.88;;;7.60;78.58
56821;BME280;42702;50.178;20.992;2022-12-05T12:08:22;99680.41;;;7.59;78.46
56821;BME280;42702;50.178;20.992;2022-12-05T12:11:30;99678.98;;;7.57;78.38
56821;BME280;42702;50.178;20.992;2022-12-05T12:36:37;99665.52;;;7.61;78.41
56821;BME280;42702;50.178;20.992;2022-12-05T12:42:24;99657.31;;;7.58;78.29
56821;BME280;42702;50.178;20.992;2022-12-05T12:45:19;99657.80;;;7.55;78.12
56821;BME280;42702;50.178;20.992;2022-12-05T12:50:41;99662.19;;;7.59;77.84
56821;BME280;42702;50.178;20.992;2022-12-05T12:53:36;99660.60;;;7.56;78.14
56821;BME280;42702;50.178;20.992;2022-12-05T13:01:44;99663.81;;;7.50;78.39
56821;BME280;42702;50.178;20.992;2022-12-05T13:07:00;99663.59;;;7.47;78.26
56821;BME280;42702;50.178;20.992;2022-12-05T13:09:51;99667.30;;;7.51;78.20
56821;BME280;42702;50.178;20.992;2022-12-05T13:12:24;99660.52;;;7.51;78.24
56821;BME280;42702;50.178;20.992;2022-12-05T13:15:09;99657.90;;;7.49;78.38
56821;BME280;42702;50.178;20.992;2022-12-05T13:17:42;99656.35;;;7.49;78.32
56821;BME280;42702;50.178;20.992;2022-12-05T13:20:20;99651.46;;;7.48;78.30
56821;BME280;42702;50.178;20.992;2022-12-05T13:22:50;99652.84;;;7.47;78.36
56821;BME280;42702;50.178;20.992;2022-12-05T13:25:22;99659.61;;;7.46;78.38
56821;BME280;42702;50.178;20.992;2022-12-05T13:27:59;99658.02;;;7.44;78.23
56821;BME280;42702;50.178;20.992;2022-12-05T13:30:28;99653.48;;;7.42;78.30
56821;BME280;42702;50.178;20.992;2022-12-05T13:33:01;99656.14;;;7.47;78.10
56821;BME280;42702;50.178;20.992;2022-12-05T13:35:34;99660.80;;;7.46;77.97
56821;BME280;42702;50.178;20.992;2022-12-05T13:38:33;99664.06;;;7.43;78.30
56821;BME280;42702;50.178;20.992;2022-12-05T13:41:40;99662.98;;;7.40;78.09
56821;BME280;42702;50.178;20.992;2022-12-05T13:44:38;99664.66;;;7.36;78.35
56821;BME280;42702;50.178;20.992;2022-12-05T13:47:32;99663.94;;;7.34;78.32
56821;BME280;42702;50.178;20.992;2022-12-05T13:52:48;99655.55;;;7.28;78.38
56821;BME280;42702;50.178;20.992;2022-12-05T13:55:32;99656.04;;;7.26;78.16
56821;BME280;42702;50.178;20.992;2022-12-05T14:00:47;99662.84;;;7.29;78.00
56821;BME280;42702;50.178;20.992;2022-12-05T14:06:00;99663.12;;;7.23;78.32
56821;BME280;42702;50.178;20.992;2022-12-05T14:19:11;99658.19;;;7.19;78.04
56821;BME280;42702;50.178;20.992;2022-12-05T14:21:55;99649.85;;;7.17;78.24
56821;BME280;42702;50.178;20.992;2022-12-05T14:27:45;99649.55;;;7.08;78.22
56821;BME280;42702;50.178;20.992;2022-12-05T14:30:24;99655.06;;;7.06;78.38
56821;BME280;42702;50.178;20.992;2022-12-05T14:32:59;99656.59;;;7.03;78.33
56821;BME280;42702;50.178;20.992;2022-12-05T14:35:40;99663.11;;;6.99;78.20
56821;BME280;42702;50.178;20.992;2022-12-05T14:38:33;99660.48;;;6.97;78.35
56821;BME280;42702;50.178;20.992;2022-12-05T14:41:22;99657.91;;;7.00;78.01
56821;BME280;42702;50.178;20.992;2022-12-05T14:43:53;99655.79;;;6.96;78.14
56821;BME280;42702;50.178;20.992;2022-12-05T14:46:30;99654.17;;;6.92;78.36
56821;BME280;42702;50.178;20.992;2022-12-05T14:52:19;99650.84;;;6.90;78.29
56821;BME280;42702;50.178;20.992;2022-12-05T14:54:53;99651.32;;;6.87;78.24
56821;BME280;42702;50.178;20.992;2022-12-05T14:57:25;99650.05;;;6.83;78.51
56821;BME280;42702;50.178;20.992;2022-12-05T14:59:58;99652.05;;;6.78;78.44
56821;BME280;42702;50.178;20.992;2022-12-05T15:02:31;99653.71;;;6.74;78.24
56821;BME280;42702;50.178;20.992;2022-12-05T15:05:23;99652.51;;;6.75;78.13
56821;BME280;42702;50.178;20.992;2022-12-05T15:07:53;99653.48;;;6.70;78.22
56821;BME280;42702;50.178;20.992;2022-12-05T15:10:34;99656.02;;;6.66;78.25
56821;BME280;42702;50.178;20.992;2022-12-05T15:13:16;99653.02;;;6.62;78.42
56821;BME280;42702;50.178;20.992;2022-12-05T15:16:01;99648.79;;;6.57;78.50
56821;BME280;42702;50.178;20.992;2022-12-05T15:18:44;99649.22;;;6.53;78.38
56821;BME280;42702;50.178;20.992;2022-12-05T15:24:04;99645.23;;;6.42;78.39
56821;BME280;42702;50.178;20.992;2022-12-05T15:26:45;99641.37;;;6.38;78.36
56821;BME280;42702;50.178;20.992;2022-12-05T15:35:04;99644.67;;;6.30;78.53
56821;BME280;42702;50.178;20.992;2022-12-05T15:37:42;99644.06;;;6.24;78.61
56821;BME280;42702;50.178;20.992;2022-12-05T15:40:15;99642.59;;;6.18;78.82
56821;BME280;42702;50.178;20.992;2022-12-05T15:42:47;99646.85;;;6.16;78.84
56821;BME280;42702;50.178;20.992;2022-12-05T15:45:19;99648.16;;;6.12;78.85
56821;BME280;42702;50.178;20.992;2022-12-05T15:47:55;99645.34;;;6.09;78.92
56821;BME280;42702;50.178;20.992;2022-12-05T15:50:32;99640.86;;;6.10;78.84
56821;BME280;42702;50.178;20.992;2022-12-05T15:53:28;99638.53;;;6.05;78.98
56821;BME280;42702;50.178;20.992;2022-12-05T15:58:38;99638.25;;;5.99;79.12
56821;BME280;42702;50.178;20.992;2022-12-05T16:01:20;99630.77;;;5.98;79.01
56821;BME280;42702;50.178;20.992;2022-12-05T16:04:00;99628.75;;;5.93;79.23
56821;BME280;42702;50.178;20.992;2022-12-05T16:06:34;99624.88;;;5.89;79.34
56821;BME280;42702;50.178;20.992;2022-12-05T16:09:11;99626.11;;;5.90;79.11